sensor_id;sensor_type;location;lat;lon;timestamp;temperature;humidity
76203;DHT22;64985;46.364;17.008;2023-12-07T00:00:11;0.40;99.90
76203;DHT22;64985;46.364;17.008;2023-12-07T00:03:15;0.40;99.90
76203;DHT22;64985;46.364;17.008;2023-12-07T00:06:18;0.40;99.90
76203;DHT22;64985;46.364;17.008;2023-12-07T00:09:21;0.40;99.90
76203;DHT22;64985;46.364;17.008;2023-12-07T00:12:25;0.40;99.90
76203;DHT22;64985;46.364;17.008;2023-12-07T00:15:29;0.40;99.90
76203;DHT22;64985;46.364;17.008;2023-12-07T00:18:32;0.40;99.90
76203;DHT22;64985;46.364;17.008;2023-12-07T00:21:36;0.40;99.90
76203;DHT22;64985;46.364;17.008;2023-12-07T00:24:39;0.40;99.90
76203;DHT22;64985;46.364;17.008;2023-12-07T00:27:43;0.30;99.90
76203;DHT22;64985;46.364;17.008;2023-12-07T00:30:47;0.30;99.90
76203;DHT22;64985;46.364;17.008;2023-12-07T00:33:50;0.30;99.90
76203;DHT22;64985;46.364;17.008;2023-12-07T00:36:53;0.30;99.90
76203;DHT22;64985;46.364;17.008;2023-12-07T00:39:57;0.30;99.90
76203;DHT22;64985;46.364;17.008;2023-12-07T00:43:00;0.30;99.90
76203;DHT22;64985;46.364;17.008;2023-12-07T00:46:06;0.20;99.90
76203;DHT22;64985;46.364;17.008;2023-12-07T00:49:09;0.20;99.90
76203;DHT22;64985;46.364;17.008;2023-12-07T00:52:13;0.30;99.90
76203;DHT22;64985;46.364;17.008;2023-12-07T00:55:16;0.20;99.90
76203;DHT22;64985;46.364;17.008;2023-12-07T00:58:20;0.30;99.90
76203;DHT22;64985;46.364;17.008;2023-12-07T01:01:23;0.30;99.90
76203;DHT22;64985;46.364;17.008;2023-12-07T01:04:28;0.20;99.90
76203;DHT22;64985;46.364;17.008;2023-12-07T01:07:31;0.20;99.90
76203;DHT22;64985;46.364;17.008;2023-12-07T01:10:35;0.10;99.90
76203;DHT22;64985;46.364;17.008;2023-12-07T01:13:38;0.10;99.90
76203;DHT22;64985;46.364;17.008;2023-12-07T01:16:42;0.00;99.90
76203;DHT22;64985;46.364;17.008;2023-12-07T01:19:46;0.00;99.90
76203;DHT22;64985;46.364;17.008;2023-12-07T01:22:50;-0.10;99.90
76203;DHT22;64985;46.364;17.008;2023-12-07T01:25:52;-0.10;99.90
76203;DHT22;64985;46.364;17.008;2023-12-07T01:28:55;-0.10;99.90
76203;DHT22;64985;46.364;17.008;2023-12-07T01:31:59;-0.20;99.90
76203;DHT22;64985;46.364;17.008;2023-12-07T01:35:02;-0.10;99.90
76203;DHT22;64985;46.364;17.008;2023-12-07T01:38:06;-0.10;99.90
76203;DHT22;64985;46.364;17.008;2023-12-07T01:41:09;-0.20;99.90
76203;DHT22;64985;46.364;17.008;2023-12-07T01:44:13;-0.20;99.90
76203;DHT22;64985;46.364;17.008;2023-12-07T01:47:16;-0.20;99.90
76203;DHT22;64985;46.364;17.008;2023-12-07T01:50:20;-0.20;99.90
76203;DHT22;64985;46.364;17.008;2023-12-07T01:53:28;-0.30;99.90
76203;DHT22;64985;46.364;17.008;2023-12-07T01:56:32;-0.30;99.90
76203;DHT22;64985;46.364;17.008;2023-12-07T01:59:35;-0.30;99.90
76203;DHT22;64985;46.364;17.008;2023-12-07T02:02:39;-0.30;99.90
76203;DHT22;64985;46.364;17.008;2023-12-07T02:05:47;-0.30;99.90
76203;DHT22;64985;46.364;17.008;2023-12-07T02:08:51;-0.30;99.90
76203;DHT22;64985;46.364;17.008;2023-12-07T02:11:55;-0.30;99.90
76203;DHT22;64985;46.364;17.008;2023-12-07T02:15:00;-0.30;99.90
76203;DHT22;64985;46.364;17.008;2023-12-07T02:21:22;-0.40;99.90
76203;DHT22;64985;46.364;17.008;2023-12-07T02:24:31;-0.40;99.90
76203;DHT22;64985;46.364;17.008;2023-12-07T02:27:38;-0.50;99.90
76203;DHT22;64985;46.364;17.008;2023-12-07T02:30:42;-0.50;99.90
76203;DHT22;64985;46.364;17.008;2023-12-07T02:33:45;-0.50;99.90
76203;DHT22;64985;46.364;17.008;2023-12-07T02:36:52;-0.50;99.90
76203;DHT22;64985;46.364;17.008;2023-12-07T02:39:56;-0.40;99.90
76203;DHT22;64985;46.364;17.008;2023-12-07T02:43:00;-0.50;99.90
76203;DHT22;64985;46.364;17.008;2023-12-07T02:46:05;-0.50;99.90
76203;DHT22;64985;46.364;17.008;2023-12-07T02:49:08;-0.50;99.90
76203;DHT22;64985;46.364;17.008;2023-12-07T02:52:12;-0.50;99.90
76203;DHT22;64985;46.364;17.008;2023-12-07T02:55:15;-0.50;99.90
76203;DHT22;64985;46.364;17.008;2023-12-07T02:58:18;-0.40;99.90
76203;DHT22;64985;46.364;17.008;2023-12-07T03:01:22;-0.20;99.90
76203;DHT22;64985;46.364;17.008;2023-12-07T03:04:25;0.20;99.90
76203;DHT22;64985;46.364;17.008;2023-12-07T03:07:29;0.20;99.90
76203;DHT22;64985;46.364;17.008;2023-12-07T03:10:33;0.20;99.90
76203;DHT22;64985;46.364;17.008;2023-12-07T03:13:37;0.10;99.90
76203;DHT22;64985;46.364;17.008;2023-12-07T03:16:40;0.00;99.90
76203;DHT22;64985;46.364;17.008;2023-12-07T03:19:44;0.00;99.90
76203;DHT22;64985;46.364;17.008;2023-12-07T03:22:48;-0.10;99.90
76203;DHT22;64985;46.364;17.008;2023-12-07T03:25:51;-0.10;99.90
76203;DHT22;64985;46.364;17.008;2023-12-07T03:28:55;-0.10;99.90
76203;DHT22;64985;46.364;17.008;2023-12-07T03:31:58;-0.10;99.90
76203;DHT22;64985;46.364;17.008;2023-12-07T03:35:01;-0.10;99.90
76203;DHT22;64985;46.364;17.008;2023-12-07T03:38:05;-0.10;99.90
76203;DHT22;64985;46.364;17.008;2023-12-07T03:41:09;-0.10;99.90
76203;DHT22;64985;46.364;17.008;2023-12-07T03:44:13;-0.10;99.90
76203;DHT22;64985;46.364;17.008;2023-12-07T03:47:16;0.00;99.90
76203;DHT22;64985;46.364;17.008;2023-12-07T03:50:20;-0.10;99.90
76203;DHT22;64985;46.364;17.008;2023-12-07T03:53:24;-0.10;99.90
76203;DHT22;64985;46.364;17.008;2023-12-07T03:56:28;-0.10;99.90
76203;DHT22;64985;46.364;17.008;2023-12-07T03:59:35;-0.10;99.90
76203;DHT22;64985;46.364;17.008;2023-12-07T04:02:39;-0.10;99.90
76203;DHT22;64985;46.364;17.008;2023-12-07T04:05:42;0.00;99.90
76203;DHT22;64985;46.364;17.008;2023-12-07T04:08:45;0.00;99.90
76203;DHT22;64985;46.364;17.008;2023-12-07T04:11:49;0.10;99.90
76203;DHT22;64985;46.364;17.008;2023-12-07T04:14:52;0.10;99.90
76203;DHT22;64985;46.364;17.008;2023-12-07T04:17:55;0.10;99.90
76203;DHT22;64985;46.364;17.008;2023-12-07T04:20:59;0.20;99.90
76203;DHT22;64985;46.364;17.008;2023-12-07T04:24:02;0.20;99.90
76203;DHT22;64985;46.364;17.008;2023-12-07T04:27:07;0.20;99.90
76203;DHT22;64985;46.364;17.008;2023-12-07T04:30:10;0.30;99.90
76203;DHT22;64985;46.364;17.008;2023-12-07T04:33:13;0.30;99.90
76203;DHT22;64985;46.364;17.008;2023-12-07T04:36:17;0.30;99.90
76203;DHT22;64985;46.364;17.008;2023-12-07T04:39:20;0.20;99.90
76203;DHT22;64985;46.364;17.008;2023-12-07T04:42:24;0.30;99.90
76203;DHT22;64985;46.364;17.008;2023-12-07T04:45:28;0.20;99.90
76203;DHT22;64985;46.364;17.008;2023-12-07T04:48:31;0.30;99.90
76203;DHT22;64985;46.364;17.008;2023-12-07T04:51:34;0.20;99.90
76203;DHT22;64985;46.364;17.008;2023-12-07T04:54:37;0.30;99.90
76203;DHT22;64985;46.364;17.008;2023-12-07T04:57:41;0.30;99.90
76203;DHT22;64985;46.364;17.008;2023-12-07T05:00:44;0.30;99.90
76203;DHT22;64985;46.364;17.008;2023-12-07T05:03:48;0.30;99.90
76203;DHT22;64985;46.364;17.008;2023-12-07T05:06:51;0.30;99.90
76203;DHT22;64985;46.364;17.008;2023-12-07T05:09:55;0.20;99.90
76203;DHT22;64985;46.364;17.008;2023-12-07T05:12:58;0.20;99.90
76203;DHT22;64985;46.364;17.008;2023-12-07T05:16:02;0.20;99.90
76203;DHT22;64985;46.364;17.008;2023-12-07T05:19:06;0.20;99.90
76203;DHT22;64985;46.364;17.008;2023-12-07T05:22:10;0.20;99.90
76203;DHT22;64985;46.364;17.008;2023-12-07T05:25:14;0.30;99.90
76203;DHT22;64985;46.364;17.008;2023-12-07T05:28:17;0.40;99.90
76203;DHT22;64985;46.364;17.008;2023-12-07T05:31:21;0.40;99.90
76203;DHT22;64985;46.364;17.008;2023-12-07T05:34:24;0.40;99.90
76203;DHT22;64985;46.364;17.008;2023-12-07T05:37:28;0.50;99.90
76203;DHT22;64985;46.364;17.008;2023-12-07T05:40:32;0.40;99.90
76203;DHT22;64985;46.364;17.008;2023-12-07T05:43:36;0.40;99.90
76203;DHT22;64985;46.364;17.008;2023-12-07T05:46:40;0.50;99.90
76203;DHT22;64985;46.364;17.008;2023-12-07T05:49:47;0.50;99.90
76203;DHT22;64985;46.364;17.008;2023-12-07T05:52:50;0.50;99.90
76203;DHT22;64985;46.364;17.008;2023-12-07T05:55:57;0.50;99.90
76203;DHT22;64985;46.364;17.008;2023-12-07T05:59:04;0.50;99.90
76203;DHT22;64985;46.364;17.008;2023-12-07T06:02:07;0.50;99.90
76203;DHT22;64985;46.364;17.008;2023-12-07T06:05:11;0.50;99.90
76203;DHT22;64985;46.364;17.008;2023-12-07T06:08:14;0.50;99.90
76203;DHT22;64985;46.364;17.008;2023-12-07T06:11:18;0.50;99.90
76203;DHT22;64985;46.364;17.008;2023-12-07T06:14:21;0.50;99.90
76203;DHT22;64985;46.364;17.008;2023-12-07T06:17:26;0.50;99.90
76203;DHT22;64985;46.364;17.008;2023-12-07T06:20:29;0.50;99.90
76203;DHT22;64985;46.364;17.008;2023-12-07T06:23:32;0.50;99.90
76203;DHT22;64985;46.364;17.008;2023-12-07T06:26:37;0.50;99.90
76203;DHT22;64985;46.364;17.008;2023-12-07T06:29:40;0.60;99.90
76203;DHT22;64985;46.364;17.008;2023-12-07T06:32:44;0.60;99.90
76203;DHT22;64985;46.364;17.008;2023-12-07T06:35:47;0.60;99.90
76203;DHT22;64985;46.364;17.008;2023-12-07T06:38:51;0.60;99.90
76203;DHT22;64985;46.364;17.008;2023-12-07T06:41:54;0.60;99.90
76203;DHT22;64985;46.364;17.008;2023-12-07T06:44:58;0.60;99.90
76203;DHT22;64985;46.364;17.008;2023-12-07T06:48:02;0.60;99.90
76203;DHT22;64985;46.364;17.008;2023-12-07T06:51:05;0.70;99.90
76203;DHT22;64985;46.364;17.008;2023-12-07T06:54:09;0.70;99.90
76203;DHT22;64985;46.364;17.008;2023-12-07T06:57:12;0.80;99.90
76203;DHT22;64985;46.364;17.008;2023-12-07T07:00:16;0.80;99.90
76203;DHT22;64985;46.364;17.008;2023-12-07T07:03:21;0.90;99.90
76203;DHT22;64985;46.364;17.008;2023-12-07T07:06:25;0.90;99.90
76203;DHT22;64985;46.364;17.008;2023-12-07T07:09:28;0.90;99.90
76203;DHT22;64985;46.364;17.008;2023-12-07T07:12:31;1.00;99.90
76203;DHT22;64985;46.364;17.008;2023-12-07T07:15:34;1.00;99.90
76203;DHT22;64985;46.364;17.008;2023-12-07T07:18:38;1.10;99.90
76203;DHT22;64985;46.364;17.008;2023-12-07T07:21:42;1.10;99.90
76203;DHT22;64985;46.364;17.008;2023-12-07T07:24:45;1.10;99.90
76203;DHT22;64985;46.364;17.008;2023-12-07T07:27:49;1.20;99.90
76203;DHT22;64985;46.364;17.008;2023-12-07T07:30:52;1.20;99.90
76203;DHT22;64985;46.364;17.008;2023-12-07T07:33:56;1.30;99.90
76203;DHT22;64985;46.364;17.008;2023-12-07T07:37:03;1.40;99.90
76203;DHT22;64985;46.364;17.008;2023-12-07T07:40:07;1.40;99.90
76203;DHT22;64985;46.364;17.008;2023-12-07T07:43:11;1.50;99.90
76203;DHT22;64985;46.364;17.008;2023-12-07T07:46:15;1.50;99.90
76203;DHT22;64985;46.364;17.008;2023-12-07T07:49:18;1.60;99.90
76203;DHT22;64985;46.364;17.008;2023-12-07T07:52:22;1.60;99.90
76203;DHT22;64985;46.364;17.008;2023-12-07T07:55:25;1.80;99.90
76203;DHT22;64985;46.364;17.008;2023-12-07T07:58:29;1.90;99.90
76203;DHT22;64985;46.364;17.008;2023-12-07T08:01:32;2.00;99.90
76203;DHT22;64985;46.364;17.008;2023-12-07T08:04:36;2.10;99.90
76203;DHT22;64985;46.364;17.008;2023-12-07T08:07:39;2.20;99.90
76203;DHT22;64985;46.364;17.008;2023-12-07T08:10:43;2.30;99.90
76203;DHT22;64985;46.364;17.008;2023-12-07T08:13:57;2.50;99.90
76203;DHT22;64985;46.364;17.008;2023-12-07T08:17:01;2.60;99.90
76203;DHT22;64985;46.364;17.008;2023-12-07T08:20:06;2.70;99.90
76203;DHT22;64985;46.364;17.008;2023-12-07T08:23:09;2.80;99.90
76203;DHT22;64985;46.364;17.008;2023-12-07T08:26:14;2.90;99.90
76203;DHT22;64985;46.364;17.008;2023-12-07T08:29:18;3.10;99.90
76203;DHT22;64985;46.364;17.008;2023-12-07T08:32:21;3.20;99.90
76203;DHT22;64985;46.364;17.008;2023-12-07T08:35:24;3.30;99.90
76203;DHT22;64985;46.364;17.008;2023-12-07T08:38:27;3.30;99.90
76203;DHT22;64985;46.364;17.008;2023-12-07T08:41:30;3.30;99.90
76203;DHT22;64985;46.364;17.008;2023-12-07T08:44:34;3.30;99.90
76203;DHT22;64985;46.364;17.008;2023-12-07T08:47:37;3.40;99.90
76203;DHT22;64985;46.364;17.008;2023-12-07T08:50:41;3.60;99.90
76203;DHT22;64985;46.364;17.008;2023-12-07T08:53:44;3.90;99.90
76203;DHT22;64985;46.364;17.008;2023-12-07T08:56:51;4.20;99.90
76203;DHT22;64985;46.364;17.008;2023-12-07T08:59:54;4.60;99.90
76203;DHT22;64985;46.364;17.008;2023-12-07T09:02:58;4.70;99.90
76203;DHT22;64985;46.364;17.008;2023-12-07T09:06:01;4.90;99.90
76203;DHT22;64985;46.364;17.008;2023-12-07T09:09:05;4.80;99.90
76203;DHT22;64985;46.364;17.008;2023-12-07T09:12:08;4.90;99.90
76203;DHT22;64985;46.364;17.008;2023-12-07T09:15:12;5.00;99.90
76203;DHT22;64985;46.364;17.008;2023-12-07T09:18:15;4.80;99.90
76203;DHT22;64985;46.364;17.008;2023-12-07T09:21:18;4.70;99.90
76203;DHT22;64985;46.364;17.008;2023-12-07T09:24:22;4.70;99.90
76203;DHT22;64985;46.364;17.008;2023-12-07T09:27:25;4.70;99.90
76203;DHT22;64985;46.364;17.008;2023-12-07T09:30:28;4.90;99.90
76203;DHT22;64985;46.364;17.008;2023-12-07T09:33:32;4.80;99.90
76203;DHT22;64985;46.364;17.008;2023-12-07T09:36:35;5.30;99.90
76203;DHT22;64985;46.364;17.008;2023-12-07T09:39:38;5.60;99.90
76203;DHT22;64985;46.364;17.008;2023-12-07T09:42:42;5.50;99.90
76203;DHT22;64985;46.364;17.008;2023-12-07T09:45:45;5.90;99.90
76203;DHT22;64985;46.364;17.008;2023-12-07T09:48:49;6.30;99.90
76203;DHT22;64985;46.364;17.008;2023-12-07T09:51:54;6.50;99.90
76203;DHT22;64985;46.364;17.008;2023-12-07T09:54:58;6.60;99.90
76203;DHT22;64985;46.364;17.008;2023-12-07T09:58:06;7.10;99.90
76203;DHT22;64985;46.364;17.008;2023-12-07T10:01:11;7.10;99.90
76203;DHT22;64985;46.364;17.008;2023-12-07T10:04:22;7.70;99.90
76203;DHT22;64985;46.364;17.008;2023-12-07T10:07:33;7.70;99.90
76203;DHT22;64985;46.364;17.008;2023-12-07T10:10:38;7.90;99.90
76203;DHT22;64985;46.364;17.008;2023-12-07T10:13:41;7.70;99.90
76203;DHT22;64985;46.364;17.008;2023-12-07T10:16:53;8.40;99.90
76203;DHT22;64985;46.364;17.008;2023-12-07T10:20:08;8.70;99.90
76203;DHT22;64985;46.364;17.008;2023-12-07T10:23:12;8.30;99.90
76203;DHT22;64985;46.364;17.008;2023-12-07T10:26:17;8.00;99.90
76203;DHT22;64985;46.364;17.008;2023-12-07T10:29:24;7.90;99.90
76203;DHT22;64985;46.364;17.008;2023-12-07T10:32:38;8.20;99.90
76203;DHT22;64985;46.364;17.008;2023-12-07T10:35:42;8.50;99.90
76203;DHT22;64985;46.364;17.008;2023-12-07T10:38:46;8.70;99.90
76203;DHT22;64985;46.364;17.008;2023-12-07T10:41:56;8.80;99.90
76203;DHT22;64985;46.364;17.008;2023-12-07T10:45:06;9.00;99.90
76203;DHT22;64985;46.364;17.008;2023-12-07T10:48:10;9.30;99.90
76203;DHT22;64985;46.364;17.008;2023-12-07T10:51:23;9.80;99.90
76203;DHT22;64985;46.364;17.008;2023-12-07T10:54:43;10.10;99.90
76203;DHT22;64985;46.364;17.008;2023-12-07T10:57:47;10.30;99.90
76203;DHT22;64985;46.364;17.008;2023-12-07T11:00:52;10.20;99.90
76203;DHT22;64985;46.364;17.008;2023-12-07T11:03:58;9.90;99.90
76203;DHT22;64985;46.364;17.008;2023-12-07T11:07:07;9.60;99.90
76203;DHT22;64985;46.364;17.008;2023-12-07T11:10:20;9.50;99.90
76203;DHT22;64985;46.364;17.008;2023-12-07T11:13:30;9.40;99.60
76203;DHT22;64985;46.364;17.008;2023-12-07T11:16:40;9.50;96.90
76203;DHT22;64985;46.364;17.008;2023-12-07T11:19:45;9.70;96.70
76203;DHT22;64985;46.364;17.008;2023-12-07T11:22:50;9.50;94.40
76203;DHT22;64985;46.364;17.008;2023-12-07T11:25:53;9.60;93.50
76203;DHT22;64985;46.364;17.008;2023-12-07T11:28:58;9.40;92.50
76203;DHT22;64985;46.364;17.008;2023-12-07T11:32:02;9.30;92.50
76203;DHT22;64985;46.364;17.008;2023-12-07T11:35:18;9.30;95.20
76203;DHT22;64985;46.364;17.008;2023-12-07T11:38:22;9.80;92.30
76203;DHT22;64985;46.364;17.008;2023-12-07T11:41:29;10.20;90.90
76203;DHT22;64985;46.364;17.008;2023-12-07T11:44:37;10.20;90.10
76203;DHT22;64985;46.364;17.008;2023-12-07T11:47:40;10.10;92.00
76203;DHT22;64985;46.364;17.008;2023-12-07T11:51:07;10.20;85.80
76203;DHT22;64985;46.364;17.008;2023-12-07T11:54:10;10.20;85.00
76203;DHT22;64985;46.364;17.008;2023-12-07T11:57:15;10.20;86.50
76203;DHT22;64985;46.364;17.008;2023-12-07T12:00:20;10.10;84.30
76203;DHT22;64985;46.364;17.008;2023-12-07T12:03:27;10.10;82.60
76203;DHT22;64985;46.364;17.008;2023-12-07T12:06:31;10.10;84.40
76203;DHT22;64985;46.364;17.008;2023-12-07T12:09:35;10.10;84.90
76203;DHT22;64985;46.364;17.008;2023-12-07T12:12:38;10.30;83.40
76203;DHT22;64985;46.364;17.008;2023-12-07T12:15:44;10.60;80.80
76203;DHT22;64985;46.364;17.008;2023-12-07T12:18:47;10.70;78.90
76203;DHT22;64985;46.364;17.008;2023-12-07T12:21:51;10.90;83.20
76203;DHT22;64985;46.364;17.008;2023-12-07T12:24:54;11.20;76.80
76203;DHT22;64985;46.364;17.008;2023-12-07T12:28:04;11.20;74.00
76203;DHT22;64985;46.364;17.008;2023-12-07T12:31:10;11.60;74.60
76203;DHT22;64985;46.364;17.008;2023-12-07T12:34:14;11.60;73.20
76203;DHT22;64985;46.364;17.008;2023-12-07T12:37:17;11.60;70.00
76203;DHT22;64985;46.364;17.008;2023-12-07T12:40:22;11.70;72.00
76203;DHT22;64985;46.364;17.008;2023-12-07T12:43:26;11.90;74.70
76203;DHT22;64985;46.364;17.008;2023-12-07T12:46:29;12.00;75.20
76203;DHT22;64985;46.364;17.008;2023-12-07T12:49:36;11.90;78.10
76203;DHT22;64985;46.364;17.008;2023-12-07T12:52:41;11.70;72.40
76203;DHT22;64985;46.364;17.008;2023-12-07T12:55:44;11.50;75.30
76203;DHT22;64985;46.364;17.008;2023-12-07T12:58:51;11.50;73.90
76203;DHT22;64985;46.364;17.008;2023-12-07T13:01:55;11.20;69.40
76203;DHT22;64985;46.364;17.008;2023-12-07T13:05:00;11.10;68.20
76203;DHT22;64985;46.364;17.008;2023-12-07T13:08:03;10.80;72.60
76203;DHT22;64985;46.364;17.008;2023-12-07T13:11:17;10.90;73.90
76203;DHT22;64985;46.364;17.008;2023-12-07T13:14:21;10.50;75.20
76203;DHT22;64985;46.364;17.008;2023-12-07T13:17:25;10.60;80.30
76203;DHT22;64985;46.364;17.008;2023-12-07T13:20:31;10.80;78.20
76203;DHT22;64985;46.364;17.008;2023-12-07T13:23:54;10.60;77.90
76203;DHT22;64985;46.364;17.008;2023-12-07T13:26:58;10.50;78.40
76203;DHT22;64985;46.364;17.008;2023-12-07T13:30:04;10.40;80.90
76203;DHT22;64985;46.364;17.008;2023-12-07T13:33:09;10.40;81.20
76203;DHT22;64985;46.364;17.008;2023-12-07T13:36:29;10.30;80.90
76203;DHT22;64985;46.364;17.008;2023-12-07T13:39:34;10.20;78.40
76203;DHT22;64985;46.364;17.008;2023-12-07T13:42:37;10.10;82.70
76203;DHT22;64985;46.364;17.008;2023-12-07T13:45:41;9.80;78.70
76203;DHT22;64985;46.364;17.008;2023-12-07T13:48:45;9.70;85.10
76203;DHT22;64985;46.364;17.008;2023-12-07T13:51:50;9.70;82.80
76203;DHT22;64985;46.364;17.008;2023-12-07T13:54:53;9.70;88.00
76203;DHT22;64985;46.364;17.008;2023-12-07T13:57:57;9.60;84.00
76203;DHT22;64985;46.364;17.008;2023-12-07T14:01:02;9.80;85.40
76203;DHT22;64985;46.364;17.008;2023-12-07T14:04:06;9.70;82.80
76203;DHT22;64985;46.364;17.008;2023-12-07T14:07:20;9.80;75.00
76203;DHT22;64985;46.364;17.008;2023-12-07T14:10:24;9.60;77.40
76203;DHT22;64985;46.364;17.008;2023-12-07T14:13:29;9.60;85.30
76203;DHT22;64985;46.364;17.008;2023-12-07T14:16:32;9.50;77.50
76203;DHT22;64985;46.364;17.008;2023-12-07T14:19:55;9.40;78.20
76203;DHT22;64985;46.364;17.008;2023-12-07T14:23:19;8.90;71.30
76203;DHT22;64985;46.364;17.008;2023-12-07T14:26:23;8.60;74.10
76203;DHT22;64985;46.364;17.008;2023-12-07T14:29:26;7.80;78.70
76203;DHT22;64985;46.364;17.008;2023-12-07T14:32:29;7.80;77.50
76203;DHT22;64985;46.364;17.008;2023-12-07T14:35:33;7.70;83.10
76203;DHT22;64985;46.364;17.008;2023-12-07T14:38:36;7.50;85.50
76203;DHT22;64985;46.364;17.008;2023-12-07T14:41:40;7.10;79.40
76203;DHT22;64985;46.364;17.008;2023-12-07T14:44:43;6.30;84.80
76203;DHT22;64985;46.364;17.008;2023-12-07T14:47:46;5.40;89.70
76203;DHT22;64985;46.364;17.008;2023-12-07T14:50:50;4.50;97.70
76203;DHT22;64985;46.364;17.008;2023-12-07T14:53:55;4.00;99.90
76203;DHT22;64985;46.364;17.008;2023-12-07T14:56:58;3.50;99.90
76203;DHT22;64985;46.364;17.008;2023-12-07T15:00:01;3.20;99.90
76203;DHT22;64985;46.364;17.008;2023-12-07T15:03:07;2.90;99.90
76203;DHT22;64985;46.364;17.008;2023-12-07T15:06:11;2.60;99.90
76203;DHT22;64985;46.364;17.008;2023-12-07T15:09:14;2.40;99.90
76203;DHT22;64985;46.364;17.008;2023-12-07T15:12:18;2.20;99.90
76203;DHT22;64985;46.364;17.008;2023-12-07T15:15:26;1.90;99.90
76203;DHT22;64985;46.364;17.008;2023-12-07T15:18:29;1.70;99.90
76203;DHT22;64985;46.364;17.008;2023-12-07T15:21:34;1.60;99.90
76203;DHT22;64985;46.364;17.008;2023-12-07T15:24:38;1.40;99.90
76203;DHT22;64985;46.364;17.008;2023-12-07T15:27:42;1.30;99.90
76203;DHT22;64985;46.364;17.008;2023-12-07T15:30:47;1.10;99.90
76203;DHT22;64985;46.364;17.008;2023-12-07T15:33:50;1.00;99.90
76203;DHT22;64985;46.364;17.008;2023-12-07T15:36:54;0.90;99.90
76203;DHT22;64985;46.364;17.008;2023-12-07T15:39:57;0.70;99.90
76203;DHT22;64985;46.364;17.008;2023-12-07T15:43:01;0.60;99.90
76203;DHT22;64985;46.364;17.008;2023-12-07T15:46:04;0.50;99.90
76203;DHT22;64985;46.364;17.008;2023-12-07T15:49:10;0.40;99.90
76203;DHT22;64985;46.364;17.008;2023-12-07T15:52:13;0.30;99.90
76203;DHT22;64985;46.364;17.008;2023-12-07T15:55:16;0.20;99.90
76203;DHT22;64985;46.364;17.008;2023-12-07T15:58:20;0.10;99.90
76203;DHT22;64985;46.364;17.008;2023-12-07T16:01:24;0.10;99.90
76203;DHT22;64985;46.364;17.008;2023-12-07T16:04:28;0.10;99.90
76203;DHT22;64985;46.364;17.008;2023-12-07T16:07:37;0.10;99.90
76203;DHT22;64985;46.364;17.008;2023-12-07T16:10:41;0.00;99.90
76203;DHT22;64985;46.364;17.008;2023-12-07T16:13:45;-0.10;99.90
76203;DHT22;64985;46.364;17.008;2023-12-07T16:16:48;-0.20;99.90
76203;DHT22;64985;46.364;17.008;2023-12-07T16:19:52;-0.30;99.90
76203;DHT22;64985;46.364;17.008;2023-12-07T16:22:56;-0.40;99.90
76203;DHT22;64985;46.364;17.008;2023-12-07T16:25:59;-0.40;99.90
76203;DHT22;64985;46.364;17.008;2023-12-07T16:29:03;-0.50;99.90
76203;DHT22;64985;46.364;17.008;2023-12-07T16:32:06;-0.60;99.90
76203;DHT22;64985;46.364;17.008;2023-12-07T16:35:10;-0.70;99.90
76203;DHT22;64985;46.364;17.008;2023-12-07T16:38:13;-0.70;99.90
76203;DHT22;64985;46.364;17.008;2023-12-07T16:41:16;-0.80;99.90
76203;DHT22;64985;46.364;17.008;2023-12-07T16:44:19;-0.80;99.90
76203;DHT22;64985;46.364;17.008;2023-12-07T16:47:23;-0.80;99.90
76203;DHT22;64985;46.364;17.008;2023-12-07T16:50:27;-0.80;99.90
76203;DHT22;64985;46.364;17.008;2023-12-07T16:53:30;-0.90;99.90
76203;DHT22;64985;46.364;17.008;2023-12-07T16:56:34;-0.90;99.90
76203;DHT22;64985;46.364;17.008;2023-12-07T16:59:37;-1.00;99.90
76203;DHT22;64985;46.364;17.008;2023-12-07T17:02:40;-1.00;99.90
76203;DHT22;64985;46.364;17.008;2023-12-07T17:05:44;-1.00;99.90
76203;DHT22;64985;46.364;17.008;2023-12-07T17:08:47;-1.00;99.90
76203;DHT22;64985;46.364;17.008;2023-12-07T17:12:04;-1.10;99.90
76203;DHT22;64985;46.364;17.008;2023-12-07T17:15:09;-1.20;99.90
76203;DHT22;64985;46.364;17.008;2023-12-07T17:18:12;-1.20;99.90
76203;DHT22;64985;46.364;17.008;2023-12-07T17:21:16;-1.30;99.90
76203;DHT22;64985;46.364;17.008;2023-12-07T17:24:20;-1.30;99.90
76203;DHT22;64985;46.364;17.008;2023-12-07T17:27:23;-1.30;99.90
76203;DHT22;64985;46.364;17.008;2023-12-07T17:30:27;-1.30;99.90
76203;DHT22;64985;46.364;17.008;2023-12-07T17:33:30;-1.30;99.90
76203;DHT22;64985;46.364;17.008;2023-12-07T17:36:34;-1.30;99.90
76203;DHT22;64985;46.364;17.008;2023-12-07T17:39:38;-1.50;99.90
76203;DHT22;64985;46.364;17.008;2023-12-07T17:42:41;-1.50;99.90
76203;DHT22;64985;46.364;17.008;2023-12-07T17:45:44;-1.60;99.90
76203;DHT22;64985;46.364;17.008;2023-12-07T17:48:48;-1.60;99.90
76203;DHT22;64985;46.364;17.008;2023-12-07T17:51:53;-1.60;99.90
76203;DHT22;64985;46.364;17.008;2023-12-07T17:54:57;-1.60;99.90
76203;DHT22;64985;46.364;17.008;2023-12-07T17:58:00;-1.60;99.90
76203;DHT22;64985;46.364;17.008;2023-12-07T18:01:04;-1.60;99.90
76203;DHT22;64985;46.364;17.008;2023-12-07T18:04:08;-1.50;99.90
76203;DHT22;64985;46.364;17.008;2023-12-07T18:07:11;-1.50;99.90
76203;DHT22;64985;46.364;17.008;2023-12-07T18:10:15;-1.60;99.90
76203;DHT22;64985;46.364;17.008;2023-12-07T18:13:18;-1.60;99.90
76203;DHT22;64985;46.364;17.008;2023-12-07T18:16:23;-1.70;99.90
76203;DHT22;64985;46.364;17.008;2023-12-07T18:19:27;-1.80;99.90
76203;DHT22;64985;46.364;17.008;2023-12-07T18:22:30;-1.80;99.90
76203;DHT22;64985;46.364;17.008;2023-12-07T18:25:33;-1.80;99.90
76203;DHT22;64985;46.364;17.008;2023-12-07T18:28:37;-1.80;99.90
76203;DHT22;64985;46.364;17.008;2023-12-07T18:31:42;-1.80;99.90
76203;DHT22;64985;46.364;17.008;2023-12-07T18:34:45;-1.90;99.90
76203;DHT22;64985;46.364;17.008;2023-12-07T18:37:49;-1.90;99.90
76203;DHT22;64985;46.364;17.008;2023-12-07T18:40:53;-2.00;99.90
76203;DHT22;64985;46.364;17.008;2023-12-07T18:43:57;-2.10;99.90
76203;DHT22;64985;46.364;17.008;2023-12-07T18:47:00;-2.20;99.90
76203;DHT22;64985;46.364;17.008;2023-12-07T18:50:03;-2.10;99.90
76203;DHT22;64985;46.364;17.008;2023-12-07T18:53:07;-2.20;99.90
76203;DHT22;64985;46.364;17.008;2023-12-07T18:56:10;-2.20;99.90
76203;DHT22;64985;46.364;17.008;2023-12-07T18:59:13;-2.20;99.90
76203;DHT22;64985;46.364;17.008;2023-12-07T19:02:16;-2.20;99.90
76203;DHT22;64985;46.364;17.008;2023-12-07T19:05:20;-2.20;99.90
76203;DHT22;64985;46.364;17.008;2023-12-07T19:08:23;-2.20;99.90
76203;DHT22;64985;46.364;17.008;2023-12-07T19:11:27;-2.40;99.90
76203;DHT22;64985;46.364;17.008;2023-12-07T19:14:31;-2.50;99.90
76203;DHT22;64985;46.364;17.008;2023-12-07T19:17:34;-2.50;99.90
76203;DHT22;64985;46.364;17.008;2023-12-07T19:20:37;-2.50;99.90